sensor_id;sensor_type;location;lat;lon;timestamp;P1;durP1;ratioP1;P2;durP2;ratioP2
47603;SDS011;33326;51.116;6.900;2023-05-10T00:04:41;20.85;;;15.30;;
47603;SDS011;33326;51.116;6.900;2023-05-10T00:09:43;23.17;;;15.52;;
47603;SDS011;33326;51.116;6.900;2023-05-10T00:14:46;24.00;;;15.38;;
47603;SDS011;33326;51.116;6.900;2023-05-10T00:19:48;25.75;;;16.00;;
47603;SDS011;33326;51.116;6.900;2023-05-10T00:24:50;24.05;;;15.80;;
47603;SDS011;33326;51.116;6.900;2023-05-10T00:29:53;24.17;;;16.15;;
47603;SDS011;33326;51.116;6.900;2023-05-10T00:34:55;27.08;;;17.35;;
47603;SDS011;33326;51.116;6.900;2023-05-10T00:39:57;26.67;;;17.02;;
47603;SDS011;33326;51.116;6.900;2023-05-10T00:45:00;27.90;;;17.75;;
47603;SDS011;33326;51.116;6.900;2023-05-10T00:50:02;30.95;;;18.15;;
47603;SDS011;33326;51.116;6.900;2023-05-10T00:55:06;23.52;;;16.45;;
47603;SDS011;33326;51.116;6.900;2023-05-10T01:00:10;29.35;;;17.27;;
47603;SDS011;33326;51.116;6.900;2023-05-10T01:05:18;23.25;;;15.93;;
47603;SDS011;33326;51.116;6.900;2023-05-10T01:10:20;27.55;;;17.63;;
47603;SDS011;33326;51.116;6.900;2023-05-10T01:15:23;27.52;;;16.15;;
47603;SDS011;33326;51.116;6.900;2023-05-10T01:20:25;25.58;;;16.80;;
47603;SDS011;33326;51.116;6.900;2023-05-10T01:25:40;22.30;;;14.50;;
47603;SDS011;33326;51.116;6.900;2023-05-10T01:36:26;23.33;;;12.95;;
47603;SDS011;33326;51.116;6.900;2023-05-10T01:41:39;24.40;;;12.65;;
47603;SDS011;33326;51.116;6.900;2023-05-10T01:46:53;20.90;;;12.25;;
47603;SDS011;33326;51.116;6.900;2023-05-10T01:52:04;17.38;;;11.57;;
47603;SDS011;33326;51.116;6.900;2023-05-10T01:57:09;22.67;;;12.27;;
47603;SDS011;33326;51.116;6.900;2023-05-10T02:02:15;21.90;;;13.02;;
47603;SDS011;33326;51.116;6.900;2023-05-10T02:07:20;22.15;;;12.85;;
47603;SDS011;33326;51.116;6.900;2023-05-10T02:12:22;17.13;;;10.88;;
47603;SDS011;33326;51.116;6.900;2023-05-10T02:17:27;13.30;;;10.18;;
47603;SDS011;33326;51.116;6.900;2023-05-10T02:22:32;15.43;;;10.30;;
47603;SDS011;33326;51.116;6.900;2023-05-10T02:27:35;16.85;;;11.02;;
47603;SDS011;33326;51.116;6.900;2023-05-10T02:32:38;18.27;;;11.43;;
47603;SDS011;33326;51.116;6.900;2023-05-10T02:37:42;17.17;;;11.32;;
47603;SDS011;33326;51.116;6.900;2023-05-10T02:42:47;18.63;;;11.77;;
47603;SDS011;33326;51.116;6.900;2023-05-10T02:47:51;16.50;;;10.60;;
47603;SDS011;33326;51.116;6.900;2023-05-10T02:52:59;14.52;;;9.05;;
47603;SDS011;33326;51.116;6.900;2023-05-10T02:58:03;11.85;;;8.13;;
47603;SDS011;33326;51.116;6.900;2023-05-10T03:03:05;13.73;;;8.57;;
47603;SDS011;33326;51.116;6.900;2023-05-10T03:08:09;11.75;;;7.65;;
47603;SDS011;33326;51.116;6.900;2023-05-10T03:13:12;12.60;;;8.15;;
47603;SDS011;33326;51.116;6.900;2023-05-10T03:18:21;9.95;;;7.22;;
47603;SDS011;33326;51.116;6.900;2023-05-10T03:23:27;12.25;;;8.27;;
47603;SDS011;33326;51.116;6.900;2023-05-10T03:28:36;10.80;;;8.32;;
47603;SDS011;33326;51.116;6.900;2023-05-10T03:33:45;13.80;;;8.82;;
47603;SDS011;33326;51.116;6.900;2023-05-10T03:38:52;12.73;;;9.05;;
47603;SDS011;33326;51.116;6.900;2023-05-10T03:43:55;14.43;;;9.35;;
47603;SDS011;33326;51.116;6.900;2023-05-10T03:48:57;14.55;;;9.18;;
47603;SDS011;33326;51.116;6.900;2023-05-10T03:54:00;17.13;;;10.30;;
47603;SDS011;33326;51.116;6.900;2023-05-10T03:59:03;16.27;;;10.20;;
47603;SDS011;33326;51.116;6.900;2023-05-10T04:04:07;17.20;;;9.70;;
47603;SDS011;33326;51.116;6.900;2023-05-10T04:09:10;15.27;;;10.07;;
47603;SDS011;33326;51.116;6.900;2023-05-10T04:14:13;17.92;;;10.02;;
47603;SDS011;33326;51.116;6.900;2023-05-10T04:19:15;19.48;;;11.70;;
47603;SDS011;33326;51.116;6.900;2023-05-10T04:24:18;21.17;;;12.48;;
47603;SDS011;33326;51.116;6.900;2023-05-10T04:29:20;24.45;;;14.02;;
47603;SDS011;33326;51.116;6.900;2023-05-10T04:34:22;27.38;;;15.00;;
47603;SDS011;33326;51.116;6.900;2023-05-10T04:39:25;24.00;;;15.85;;
47603;SDS011;33326;51.116;6.900;2023-05-10T04:44:27;28.35;;;15.93;;
47603;SDS011;33326;51.116;6.900;2023-05-10T04:49:29;27.55;;;16.13;;
47603;SDS011;33326;51.116;6.900;2023-05-10T04:54:32;28.73;;;17.35;;
47603;SDS011;33326;51.116;6.900;2023-05-10T04:59:35;30.50;;;18.88;;
47603;SDS011;33326;51.116;6.900;2023-05-10T05:04:37;31.15;;;19.15;;
47603;SDS011;33326;51.116;6.900;2023-05-10T05:09:40;34.60;;;20.27;;
47603;SDS011;33326;51.116;6.900;2023-05-10T05:14:42;32.67;;;20.30;;
47603;SDS011;33326;51.116;6.900;2023-05-10T05:19:44;31.15;;;20.45;;
47603;SDS011;33326;51.116;6.900;2023-05-10T05:24:47;29.52;;;19.92;;
47603;SDS011;33326;51.116;6.900;2023-05-10T05:29:49;28.50;;;17.75;;
47603;SDS011;33326;51.116;6.900;2023-05-10T05:34:51;26.48;;;16.33;;
47603;SDS011;33326;51.116;6.900;2023-05-10T05:39:54;21.55;;;16.23;;
47603;SDS011;33326;51.116;6.900;2023-05-10T05:44:56;22.20;;;14.35;;
47603;SDS011;33326;51.116;6.900;2023-05-10T05:49:59;23.95;;;15.05;;
47603;SDS011;33326;51.116;6.900;2023-05-10T05:55:02;25.80;;;15.52;;
47603;SDS011;33326;51.116;6.900;2023-05-10T06:00:05;22.25;;;13.90;;
47603;SDS011;33326;51.116;6.900;2023-05-10T06:05:12;28.35;;;15.90;;
47603;SDS011;33326;51.116;6.900;2023-05-10T06:10:16;25.98;;;16.25;;
47603;SDS011;33326;51.116;6.900;2023-05-10T06:15:18;27.35;;;16.50;;
47603;SDS011;33326;51.116;6.900;2023-05-10T06:20:20;29.05;;;17.70;;
47603;SDS011;33326;51.116;6.900;2023-05-10T06:25:23;29.95;;;17.60;;
47603;SDS011;33326;51.116;6.900;2023-05-10T06:30:25;32.92;;;17.05;;
47603;SDS011;33326;51.116;6.900;2023-05-10T06:35:28;30.63;;;17.50;;
47603;SDS011;33326;51.116;6.900;2023-05-10T06:40:32;29.92;;;17.40;;
47603;SDS011;33326;51.116;6.900;2023-05-10T06:45:34;33.25;;;19.17;;
47603;SDS011;33326;51.116;6.900;2023-05-10T06:50:36;33.88;;;20.40;;
47603;SDS011;33326;51.116;6.900;2023-05-10T06:55:42;38.03;;;20.73;;
47603;SDS011;33326;51.116;6.900;2023-05-10T07:00:44;31.35;;;18.63;;
47603;SDS011;33326;51.116;6.900;2023-05-10T07:05:47;32.33;;;19.75;;
47603;SDS011;33326;51.116;6.900;2023-05-10T07:10:50;28.50;;;18.50;;
47603;SDS011;33326;51.116;6.900;2023-05-10T07:15:52;28.98;;;17.55;;
47603;SDS011;33326;51.116;6.900;2023-05-10T07:20:54;28.13;;;16.80;;
47603;SDS011;33326;51.116;6.900;2023-05-10T07:25:57;29.83;;;16.98;;
47603;SDS011;33326;51.116;6.900;2023-05-10T07:30:59;27.90;;;16.17;;
47603;SDS011;33326;51.116;6.900;2023-05-10T07:36:01;30.80;;;16.67;;
47603;SDS011;33326;51.116;6.900;2023-05-10T07:41:04;28.13;;;17.40;;
47603;SDS011;33326;51.116;6.900;2023-05-10T07:46:06;24.50;;;16.60;;
47603;SDS011;33326;51.116;6.900;2023-05-10T07:51:10;27.65;;;16.95;;
47603;SDS011;33326;51.116;6.900;2023-05-10T07:56:23;28.88;;;17.60;;
47603;SDS011;33326;51.116;6.900;2023-05-10T08:01:29;31.77;;;18.50;;
47603;SDS011;33326;51.116;6.900;2023-05-10T08:06:32;26.15;;;17.40;;
47603;SDS011;33326;51.116;6.900;2023-05-10T08:11:35;27.85;;;17.08;;
47603;SDS011;33326;51.116;6.900;2023-05-10T08:16:37;27.58;;;15.10;;
47603;SDS011;33326;51.116;6.900;2023-05-10T08:21:39;27.30;;;15.65;;
47603;SDS011;33326;51.116;6.900;2023-05-10T08:26:44;28.30;;;16.30;;
47603;SDS011;33326;51.116;6.900;2023-05-10T08:31:47;27.20;;;17.17;;
47603;SDS011;33326;51.116;6.900;2023-05-10T08:36:49;44.88;;;24.17;;
47603;SDS011;33326;51.116;6.900;2023-05-10T08:41:53;56.40;;;28.17;;
47603;SDS011;33326;51.116;6.900;2023-05-10T08:46:59;62.45;;;30.63;;
47603;SDS011;33326;51.116;6.900;2023-05-10T08:52:03;64.50;;;32.75;;
47603;SDS011;33326;51.116;6.900;2023-05-10T08:57:08;51.33;;;27.38;;
47603;SDS011;33326;51.116;6.900;2023-05-10T09:02:10;50.05;;;25.95;;
47603;SDS011;33326;51.116;6.900;2023-05-10T09:07:14;43.75;;;24.40;;
47603;SDS011;33326;51.116;6.900;2023-05-10T09:12:18;45.95;;;26.10;;
47603;SDS011;33326;51.116;6.900;2023-05-10T09:17:19;47.58;;;26.48;;
47603;SDS011;33326;51.116;6.900;2023-05-10T09:22:23;42.95;;;25.48;;
47603;SDS011;33326;51.116;6.900;2023-05-10T09:27:27;44.97;;;23.52;;
47603;SDS011;33326;51.116;6.900;2023-05-10T09:32:36;50.15;;;27.15;;
47603;SDS011;33326;51.116;6.900;2023-05-10T09:37:40;39.13;;;23.45;;
47603;SDS011;33326;51.116;6.900;2023-05-10T09:42:50;45.42;;;25.75;;
47603;SDS011;33326;51.116;6.900;2023-05-10T09:47:53;50.60;;;28.47;;
47603;SDS011;33326;51.116;6.900;2023-05-10T09:52:56;49.28;;;27.55;;
47603;SDS011;33326;51.116;6.900;2023-05-10T09:58:01;45.47;;;27.63;;
47603;SDS011;33326;51.116;6.900;2023-05-10T10:03:04;37.58;;;24.60;;
47603;SDS011;33326;51.116;6.900;2023-05-10T10:08:06;44.17;;;25.83;;
47603;SDS011;33326;51.116;6.900;2023-05-10T10:13:10;31.90;;;22.23;;
47603;SDS011;33326;51.116;6.900;2023-05-10T10:18:12;34.92;;;22.55;;
47603;SDS011;33326;51.116;6.900;2023-05-10T10:23:15;32.83;;;21.00;;
47603;SDS011;33326;51.116;6.900;2023-05-10T10:28:22;35.45;;;22.92;;
47603;SDS011;33326;51.116;6.900;2023-05-10T10:33:33;35.65;;;21.70;;
47603;SDS011;33326;51.116;6.900;2023-05-10T10:39:00;33.38;;;20.58;;
47603;SDS011;33326;51.116;6.900;2023-05-10T10:44:23;33.63;;;21.15;;
47603;SDS011;33326;51.116;6.900;2023-05-10T10:49:38;31.42;;;22.33;;
47603;SDS011;33326;51.116;6.900;2023-05-10T10:54:49;30.75;;;19.48;;
47603;SDS011;33326;51.116;6.900;2023-05-10T10:59:54;26.02;;;18.58;;
47603;SDS011;33326;51.116;6.900;2023-05-10T11:05:24;29.75;;;18.10;;
47603;SDS011;33326;51.116;6.900;2023-05-10T11:10:36;25.25;;;16.83;;
47603;SDS011;33326;51.116;6.900;2023-05-10T11:15:47;23.05;;;15.50;;
47603;SDS011;33326;51.116;6.900;2023-05-10T11:20:56;23.92;;;16.52;;
47603;SDS011;33326;51.116;6.900;2023-05-10T11:26:00;23.05;;;15.52;;
47603;SDS011;33326;51.116;6.900;2023-05-10T11:31:03;23.52;;;15.70;;
47603;SDS011;33326;51.116;6.900;2023-05-10T11:36:05;23.55;;;15.18;;
47603;SDS011;33326;51.116;6.900;2023-05-10T11:41:12;21.58;;;14.82;;
47603;SDS011;33326;51.116;6.900;2023-05-10T11:46:17;20.30;;;13.45;;
47603;SDS011;33326;51.116;6.900;2023-05-10T11:51:20;18.42;;;13.38;;
47603;SDS011;33326;51.116;6.900;2023-05-10T11:56:23;19.88;;;14.00;;
47603;SDS011;33326;51.116;6.900;2023-05-10T12:01:28;19.77;;;13.52;;
47603;SDS011;33326;51.116;6.900;2023-05-10T12:06:30;30.42;;;15.93;;
47603;SDS011;33326;51.116;6.900;2023-05-10T12:11:35;47.67;;;18.67;;
47603;SDS011;33326;51.116;6.900;2023-05-10T12:16:40;19.33;;;12.82;;
47603;SDS011;33326;51.116;6.900;2023-05-10T12:21:44;19.60;;;12.57;;
47603;SDS011;33326;51.116;6.900;2023-05-10T12:26:45;19.10;;;13.90;;
47603;SDS011;33326;51.116;6.900;2023-05-10T12:31:50;21.13;;;12.93;;
47603;SDS011;33326;51.116;6.900;2023-05-10T12:36:52;17.25;;;12.95;;
47603;SDS011;33326;51.116;6.900;2023-05-10T12:41:55;14.98;;;10.63;;
47603;SDS011;33326;51.116;6.900;2023-05-10T12:46:58;13.98;;;10.35;;
47603;SDS011;33326;51.116;6.900;2023-05-10T12:52:00;15.93;;;10.88;;
47603;SDS011;33326;51.116;6.900;2023-05-10T12:57:01;12.55;;;9.90;;
47603;SDS011;33326;51.116;6.900;2023-05-10T13:02:05;13.60;;;10.65;;
47603;SDS011;33326;51.116;6.900;2023-05-10T13:07:07;14.32;;;11.82;;
47603;SDS011;33326;51.116;6.900;2023-05-10T13:12:09;19.50;;;14.07;;
47603;SDS011;33326;51.116;6.900;2023-05-10T13:17:12;19.20;;;14.25;;
47603;SDS011;33326;51.116;6.900;2023-05-10T13:22:14;19.65;;;15.23;;
47603;SDS011;33326;51.116;6.900;2023-05-10T13:27:16;21.30;;;15.30;;
47603;SDS011;33326;51.116;6.900;2023-05-10T13:32:19;20.45;;;15.93;;
47603;SDS011;33326;51.116;6.900;2023-05-10T13:37:21;23.42;;;17.48;;
47603;SDS011;33326;51.116;6.900;2023-05-10T13:42:23;25.90;;;17.85;;
47603;SDS011;33326;51.116;6.900;2023-05-10T13:47:26;24.35;;;19.25;;
47603;SDS011;33326;51.116;6.900;2023-05-10T13:52:28;22.15;;;17.35;;
47603;SDS011;33326;51.116;6.900;2023-05-10T13:57:30;23.08;;;17.85;;
47603;SDS011;33326;51.116;6.900;2023-05-10T14:02:35;27.17;;;19.63;;
47603;SDS011;33326;51.116;6.900;2023-05-10T14:07:37;26.45;;;19.40;;
47603;SDS011;33326;51.116;6.900;2023-05-10T14:12:39;26.63;;;18.63;;
47603;SDS011;33326;51.116;6.900;2023-05-10T14:17:43;21.13;;;16.40;;
47603;SDS011;33326;51.116;6.900;2023-05-10T14:22:45;21.67;;;15.63;;
47603;SDS011;33326;51.116;6.900;2023-05-10T14:27:47;19.58;;;14.35;;
47603;SDS011;33326;51.116;6.900;2023-05-10T14:32:50;16.83;;;10.73;;
47603;SDS011;33326;51.116;6.900;2023-05-10T14:37:54;14.18;;;9.07;;
47603;SDS011;33326;51.116;6.900;2023-05-10T14:42:55;10.07;;;7.60;;
47603;SDS011;33326;51.116;6.900;2023-05-10T14:47:58;8.68;;;6.72;;
47603;SDS011;33326;51.116;6.900;2023-05-10T14:53:01;10.07;;;7.25;;
47603;SDS011;33326;51.116;6.900;2023-05-10T14:58:02;11.10;;;7.50;;
47603;SDS011;33326;51.116;6.900;2023-05-10T15:03:06;8.40;;;6.05;;
47603;SDS011;33326;51.116;6.900;2023-05-10T15:08:07;7.15;;;5.88;;
47603;SDS011;33326;51.116;6.900;2023-05-10T15:13:09;8.38;;;6.15;;
47603;SDS011;33326;51.116;6.900;2023-05-10T15:18:12;9.07;;;7.03;;
47603;SDS011;33326;51.116;6.900;2023-05-10T15:23:14;8.75;;;6.47;;
47603;SDS011;33326;51.116;6.900;2023-05-10T15:28:17;8.10;;;6.50;;
47603;SDS011;33326;51.116;6.900;2023-05-10T15:33:20;8.15;;;5.20;;
47603;SDS011;33326;51.116;6.900;2023-05-10T15:38:22;6.35;;;5.50;;
47603;SDS011;33326;51.116;6.900;2023-05-10T15:43:24;5.82;;;4.97;;
47603;SDS011;33326;51.116;6.900;2023-05-10T15:48:27;8.70;;;6.07;;
47603;SDS011;33326;51.116;6.900;2023-05-10T15:53:31;7.18;;;4.93;;
47603;SDS011;33326;51.116;6.900;2023-05-10T15:58:33;8.60;;;5.35;;
47603;SDS011;33326;51.116;6.900;2023-05-10T16:03:36;7.60;;;4.70;;
47603;SDS011;33326;51.116;6.900;2023-05-10T16:08:38;6.65;;;4.90;;
47603;SDS011;33326;51.116;6.900;2023-05-10T16:13:40;7.82;;;5.25;;
47603;SDS011;33326;51.116;6.900;2023-05-10T16:18:43;7.35;;;5.82;;
47603;SDS011;33326;51.116;6.900;2023-05-10T16:23:45;6.22;;;4.53;;
47603;SDS011;33326;51.116;6.900;2023-05-10T16:28:47;8.15;;;3.90;;
47603;SDS011;33326;51.116;6.900;2023-05-10T16:33:50;7.50;;;4.38;;
47603;SDS011;33326;51.116;6.900;2023-05-10T16:38:52;6.20;;;3.67;;
47603;SDS011;33326;51.116;6.900;2023-05-10T16:43:54;7.05;;;3.75;;
47603;SDS011;33326;51.116;6.900;2023-05-10T16:48:58;5.40;;;3.72;;
47603;SDS011;33326;51.116;6.900;2023-05-10T16:54:00;4.35;;;3.85;;
47603;SDS011;33326;51.116;6.900;2023-05-10T16:59:02;5.97;;;4.13;;
47603;SDS011;33326;51.116;6.900;2023-05-10T17:04:06;8.68;;;4.50;;
47603;SDS011;33326;51.116;6.900;2023-05-10T17:09:08;9.40;;;5.28;;
47603;SDS011;33326;51.116;6.900;2023-05-10T17:14:11;8.55;;;5.68;;
47603;SDS011;33326;51.116;6.900;2023-05-10T17:19:14;7.85;;;4.43;;
47603;SDS011;33326;51.116;6.900;2023-05-10T17:24:16;5.38;;;4.32;;
47603;SDS011;33326;51.116;6.900;2023-05-10T17:29:18;4.35;;;3.13;;
47603;SDS011;33326;51.116;6.900;2023-05-10T17:34:21;4.85;;;3.20;;
47603;SDS011;33326;51.116;6.900;2023-05-10T17:39:23;4.70;;;2.80;;
47603;SDS011;33326;51.116;6.900;2023-05-10T17:44:25;4.00;;;2.80;;
47603;SDS011;33326;51.116;6.900;2023-05-10T17:49:28;4.03;;;2.70;;
47603;SDS011;33326;51.116;6.900;2023-05-10T17:54:30;3.15;;;2.80;;
47603;SDS011;33326;51.116;6.900;2023-05-10T17:59:32;3.88;;;2.78;;
47603;SDS011;33326;51.116;6.900;2023-05-10T18:04:35;6.32;;;3.50;;
47603;SDS011;33326;51.116;6.900;2023-05-10T18:09:39;4.70;;;3.42;;
47603;SDS011;33326;51.116;6.900;2023-05-10T18:14:41;6.15;;;3.10;;
47603;SDS011;33326;51.116;6.900;2023-05-10T18:19:44;4.80;;;3.58;;
47603;SDS011;33326;51.116;6.900;2023-05-10T18:24:46;4.85;;;3.42;;
47603;SDS011;33326;51.116;6.900;2023-05-10T18:29:48;5.20;;;3.67;;
47603;SDS011;33326;51.116;6.900;2023-05-10T18:34:51;3.75;;;2.88;;
47603;SDS011;33326;51.116;6.900;2023-05-10T18:39:53;3.70;;;2.90;;
47603;SDS011;33326;51.116;6.900;2023-05-10T18:44:55;3.05;;;2.50;;
47603;SDS011;33326;51.116;6.900;2023-05-10T18:49:58;4.15;;;2.97;;
47603;SDS011;33326;51.116;6.900;2023-05-10T18:55:00;5.30;;;3.38;;
47603;SDS011;33326;51.116;6.900;2023-05-10T19:00:02;4.88;;;2.83;;
47603;SDS011;33326;51.116;6.900;2023-05-10T19:05:07;4.88;;;3.40;;
47603;SDS011;33326;51.116;6.900;2023-05-10T19:10:09;6.75;;;3.03;;
47603;SDS011;33326;51.116;6.900;2023-05-10T19:15:12;6.68;;;3.10;;
47603;SDS011;33326;51.116;6.900;2023-05-10T19:20:16;5.68;;;3.45;;
47603;SDS011;33326;51.116;6.900;2023-05-10T19:25:17;6.88;;;3.13;;
47603;SDS011;33326;51.116;6.900;2023-05-10T19:30:19;6.63;;;4.07;;
47603;SDS011;33326;51.116;6.900;2023-05-10T19:35:22;9.60;;;4.20;;
47603;SDS011;33326;51.116;6.900;2023-05-10T19:40:24;6.60;;;4.63;;
47603;SDS011;33326;51.116;6.900;2023-05-10T19:45:26;8.20;;;4.57;;
47603;SDS011;33326;51.116;6.900;2023-05-10T19:50:29;8.15;;;4.68;;
47603;SDS011;33326;51.116;6.900;2023-05-10T19:55:31;10.27;;;5.40;;
47603;SDS011;33326;51.116;6.900;2023-05-10T20:00:35;6.30;;;4.90;;
47603;SDS011;33326;51.116;6.900;2023-05-10T20:05:38;6.80;;;5.13;;
47603;SDS011;33326;51.116;6.900;2023-05-10T20:10:40;6.95;;;5.10;;
47603;SDS011;33326;51.116;6.900;2023-05-10T20:15:42;8.02;;;5.55;;
47603;SDS011;33326;51.116;6.900;2023-05-10T20:20:45;7.95;;;5.85;;
47603;SDS011;33326;51.116;6.900;2023-05-10T20:25:47;9.88;;;6.30;;
47603;SDS011;33326;51.116;6.900;2023-05-10T20:30:50;13.75;;;7.10;;
47603;SDS011;33326;51.116;6.900;2023-05-10T20:35:54;11.77;;;7.55;;
47603;SDS011;33326;51.116;6.900;2023-05-10T20:40:56;10.32;;;7.78;;
47603;SDS011;33326;51.116;6.900;2023-05-10T20:45:58;13.25;;;8.65;;
47603;SDS011;33326;51.116;6.900;2023-05-10T20:51:05;11.25;;;7.47;;
47603;SDS011;33326;51.116;6.900;2023-05-10T20:56:07;10.60;;;7.60;;
47603;SDS011;33326;51.116;6.900;2023-05-10T21:01:09;13.32;;;7.57;;
47603;SDS011;33326;51.116;6.900;2023-05-10T21:06:12;12.15;;;8.32;;
47603;SDS011;33326;51.116;6.900;2023-05-10T21:11:14;12.07;;;7.70;;
47603;SDS011;33326;51.116;6.900;2023-05-10T21:16:16;10.32;;;7.53;;
47603;SDS011;33326;51.116;6.900;2023-05-10T21:21:19;12.15;;;7.22;;
47603;SDS011;33326;51.116;6.900;2023-05-10T21:26:21;12.00;;;7.88;;
47603;SDS011;33326;51.116;6.900;2023-05-10T21:31:23;11.50;;;7.03;;
47603;SDS011;33326;51.116;6.900;2023-05-10T21:36:26;12.63;;;8.38;;
47603;SDS011;33326;51.116;6.900;2023-05-10T21:41:28;14.23;;;8.45;;
47603;SDS011;33326;51.116;6.900;2023-05-10T21:46:30;13.13;;;8.00;;
47603;SDS011;33326;51.116;6.900;2023-05-10T21:51:33;10.68;;;7.75;;
47603;SDS011;33326;51.116;6.900;2023-05-10T21:56:34;12.57;;;8.32;;
47603;SDS011;33326;51.116;6.900;2023-05-10T22:01:36;11.25;;;8.30;;
47603;SDS011;33326;51.116;6.900;2023-05-10T22:06:39;14.90;;;9.95;;
47603;SDS011;33326;51.116;6.900;2023-05-10T22:11:41;16.13;;;9.30;;
47603;SDS011;33326;51.116;6.900;2023-05-10T22:16:43;12.15;;;10.23;;
47603;SDS011;33326;51.116;6.900;2023-05-10T22:21:46;13.55;;;9.73;;
47603;SDS011;33326;51.116;6.900;2023-05-10T22:26:48;16.52;;;10.50;;
47603;SDS011;33326;51.116;6.900;2023-05-10T22:31:50;15.75;;;11.45;;
47603;SDS011;33326;51.116;6.900;2023-05-10T22:36:55;15.65;;;10.55;;
47603;SDS011;33326;51.116;6.900;2023-05-10T22:41:57;15.45;;;10.63;;
47603;SDS011;33326;51.116;6.900;2023-05-10T22:46:59;13.25;;;10.45;;
47603;SDS011;33326;51.116;6.900;2023-05-10T22:52:02;15.25;;;10.30;;
47603;SDS011;33326;51.116;6.900;2023-05-10T22:57:04;16.50;;;11.50;;
47603;SDS011;33326;51.116;6.900;2023-05-10T23:02:06;15.98;;;11.48;;
47603;SDS011;33326;51.116;6.900;2023-05-10T23:07:09;16.83;;;11.65;;
47603;SDS011;33326;51.116;6.900;2023-05-10T23:12:11;19.65;;;12.57;;
47603;SDS011;33326;51.116;6.900;2023-05-10T23:17:13;17.95;;;13.35;;
47603;SDS011;33326;51.116;6.900;2023-05-10T23:22:16;22.88;;;15.32;;
47603;SDS011;33326;51.116;6.900;2023-05-10T23:27:18;20.55;;;14.30;;
47603;SDS011;33326;51.116;6.900;2023-05-10T23:32:20;18.58;;;14.50;;
47603;SDS011;33326;51.116;6.900;2023-05-10T23:37:24;19.60;;;14.93;;
47603;SDS011;33326;51.116;6.900;2023-05-10T23:42:26;16.88;;;13.57;;
47603;SDS011;33326;51.116;6.900;2023-05-10T23:47:28;20.77;;;15.05;;
47603;SDS011;33326;51.116;6.900;2023-05-10T23:52:31;18.60;;;14.30;;
47603;SDS011;33326;51.116;6.900;2023-05-10T23:57:33;21.25;;;14.65;;
